Time;durP1;ratioP1;P1;durP2;ratioP2;P2;SDS_P1;SDS_P2;PMS_P1;PMS_P2;Temp;Humidity;BMP_temperature;BMP_pressure;BME280_temperature;BME280_humidity;BME280_pressure;Samples;Min_cycle;Max_cycle;Signal;HPM_P1;HPM_P2
2022/05/17 00:01:31;;;;;;;7.72;3.30;;;;;;;15.42;67.57;101925.22;6243289;23;20031;-80
2022/05/17 00:03:58;;;;;;;11.32;3.35;;;;;;;15.33;67.21;101924.97;6242837;23;19996;-80
2022/05/17 00:06:23;;;;;;;12.13;3.55;;;;;;;15.31;68.11;101924.25;6242407;23;20027;-81
2022/05/17 00:08:49;;;;;;;11.00;4.00;;;;;;;15.34;68.26;101928.53;6242463;23;20008;-79
2022/05/17 00:11:15;;;;;;;10.35;3.78;;;;;;;15.28;67.71;101919.13;6242631;23;20009;-80
2022/05/17 00:13:41;;;;;;;16.30;4.10;;;;;;;15.23;68.62;101923.16;6242344;23;20004;-80
2022/05/17 00:16:06;;;;;;;7.40;3.40;;;;;;;15.20;68.71;101924.25;6242177;23;20004;-80
2022/05/17 00:18:33;;;;;;;9.23;3.90;;;;;;;15.19;68.64;101919.88;6243570;23;20001;-80
2022/05/17 00:20:58;;;;;;;9.65;3.60;;;;;;;15.15;68.57;101911.25;6239219;23;20381;-81
2022/05/17 00:23:24;;;;;;;10.07;4.40;;;;;;;15.11;69.30;101908.94;6244491;23;19984;-80
2022/05/17 00:25:49;;;;;;;8.95;3.97;;;;;;;15.06;69.16;101908.44;6244731;23;20014;-81
2022/05/17 00:28:19;;;;;;;14.60;4.32;;;;;;;15.03;69.76;101908.69;6244338;23;20016;-80
2022/05/17 00:30:44;;;;;;;11.70;4.22;;;;;;;15.03;69.51;101901.50;6240509;23;20003;-80
2022/05/17 00:33:10;;;;;;;9.02;4.07;;;;;;;15.05;69.62;101901.38;6245541;23;19996;-80
2022/05/17 00:35:36;;;;;;;12.25;4.60;;;;;;;14.99;69.68;101905.41;6245450;23;19988;-80
2022/05/17 00:38:01;;;;;;;13.45;4.55;;;;;;;15.02;69.47;101897.16;6245246;23;20012;-81
2022/05/17 00:40:27;;;;;;;12.68;4.80;;;;;;;15.00;69.89;101901.75;6245320;23;20076;-80
2022/05/17 00:42:53;;;;;;;15.10;5.00;;;;;;;14.95;70.66;101899.44;6244589;23;20052;-80
2022/05/17 00:45:18;;;;;;;13.10;5.55;;;;;;;14.97;69.70;101893.94;6244589;23;19996;-80
2022/05/17 00:47:50;;;;;;;9.70;4.45;;;;;;;14.99;70.17;101894.72;6244534;23;20015;-81
2022/05/17 00:50:25;;;;;;;12.95;4.97;;;;;;;15.00;70.17;101893.72;6245292;23;19996;-80
2022/05/17 00:52:55;;;;;;;7.78;3.90;;;;;;;14.99;69.85;101889.34;6244803;23;19996;-81
2022/05/17 00:55:25;;;;;;;13.77;5.03;;;;;;;14.98;70.50;101899.19;6245205;23;20008;-80
2022/05/17 00:57:59;;;;;;;15.30;4.78;;;;;;;14.98;70.43;101893.84;6244907;23;20020;-80
2022/05/17 01:00:25;;;;;;;16.10;4.88;;;;;;;14.99;70.72;101892.88;6245235;23;20005;-80
2022/05/17 01:02:55;;;;;;;12.40;4.65;;;;;;;14.97;70.37;101891.28;6244860;23;20024;-81
2022/05/17 01:05:21;;;;;;;;;;;;;;;15.08;67.89;101885.09;6245873;23;20005;-80
2022/05/17 01:07:52;;;;;;;10.23;4.18;;;;;;;14.97;69.82;101892.16;6244968;23;19896;-80
2022/05/17 01:10:17;;;;;;;13.18;4.75;;;;;;;14.96;70.19;101884.25;6244615;23;20016;-80
2022/05/17 01:12:43;;;;;;;11.43;4.40;;;;;;;14.94;70.50;101889.72;6243519;23;19993;-80
2022/05/17 01:15:11;;;;;;;14.52;4.78;;;;;;;14.89;70.75;101881.19;6218324;23;20015;-80
2022/05/17 01:17:38;;;;;;;11.73;4.70;;;;;;;14.88;70.54;101884.00;6244414;23;21012;-80
2022/05/17 01:20:08;;;;;;;12.13;4.78;;;;;;;14.86;70.41;101888.63;6244441;23;19999;-80
2022/05/17 01:22:33;;;;;;;11.20;4.70;;;;;;;14.85;71.00;101879.72;6244022;23;20072;-80
2022/05/17 01:24:59;;;;;;;12.52;4.50;;;;;;;14.87;71.12;101883.16;6244290;23;20009;-80
2022/05/17 01:27:32;;;;;;;12.05;4.60;;;;;;;14.88;70.70;101889.34;6243473;23;20047;-80
2022/05/17 01:29:57;;;;;;;12.95;4.75;;;;;;;14.85;71.16;101887.75;6243907;23;19992;-80
2022/05/17 01:32:23;;;;;;;13.38;4.80;;;;;;;14.85;71.47;101889.56;6244434;23;20015;-80
2022/05/17 01:34:49;;;;;;;16.38;4.90;;;;;;;14.85;71.54;101890.41;6214115;23;20064;-80
2022/05/17 01:37:15;;;;;;;10.60;4.55;;;;;;;14.86;71.82;101891.28;6244190;23;20052;-80
2022/05/17 01:39:41;;;;;;;10.85;4.90;;;;;;;14.85;71.31;101892.25;6238870;23;20032;-80
2022/05/17 01:42:08;;;;;;;14.85;4.70;;;;;;;14.88;71.76;101887.50;6244135;23;20040;-80
2022/05/17 01:44:34;;;;;;;10.95;4.93;;;;;;;14.92;71.16;101888.09;6244244;23;20008;-81
2022/05/17 01:46:59;;;;;;;11.13;4.55;;;;;;;14.90;71.72;101890.06;6244445;23;20031;-80
2022/05/17 01:49:24;;;;;;;13.33;5.30;;;;;;;14.89;71.76;101885.66;6244285;23;19992;-79
2022/05/17 01:51:50;;;;;;;10.45;5.07;;;;;;;14.88;71.68;101884.00;6244358;23;20252;-79
2022/05/17 01:54:15;;;;;;;11.68;5.40;;;;;;;14.90;71.52;101890.06;6244456;23;20015;-81
2022/05/17 01:56:40;;;;;;;9.40;4.32;;;;;;;14.92;72.12;101890.78;6244737;23;20016;-80
2022/05/17 01:59:06;;;;;;;13.48;4.60;;;;;;;14.95;71.91;101890.56;6243900;23;20012;-81
2022/05/17 02:01:31;;;;;;;10.68;4.80;;;;;;;14.91;72.01;101887.28;6244077;23;20011;-80
2022/05/17 02:03:56;;;;;;;12.02;5.13;;;;;;;14.95;71.68;101886.06;6243549;23;20024;-80
2022/05/17 02:06:23;;;;;;;13.73;5.00;;;;;;;14.92;71.83;101888.09;6244241;23;20001;-80
2022/05/17 02:08:51;;;;;;;12.38;5.05;;;;;;;14.95;71.72;101886.06;6243626;23;20235;-79
2022/05/17 02:11:16;;;;;;;13.50;5.38;;;;;;;14.92;72.02;101891.66;6243502;23;20004;-80
2022/05/17 02:13:41;;;;;;;10.73;5.20;;;;;;;14.93;71.66;101885.31;6242667;23;20030;-80
2022/05/17 02:16:08;;;;;;;12.65;4.90;;;;;;;14.95;71.54;101885.19;6242724;23;20012;-80
2022/05/17 02:18:34;;;;;;;13.75;5.57;;;;;;;14.95;71.58;101888.75;6242871;23;20012;-79
2022/05/17 02:20:59;;;;;;;12.60;4.72;;;;;;;14.96;71.79;101885.09;6243081;23;20016;-81
2022/05/17 02:23:24;;;;;;;14.48;5.28;;;;;;;14.96;71.60;101893.09;6242688;23;20008;-80
2022/05/17 02:25:50;;;;;;;10.93;4.57;;;;;;;14.99;70.97;101881.31;6243092;23;20020;-80
2022/05/17 02:28:15;;;;;;;10.23;5.22;;;;;;;14.99;71.54;101884.00;6243360;23;20028;-80
2022/05/17 02:30:42;;;;;;;12.32;4.78;;;;;;;14.99;71.53;101886.69;6243816;23;20011;-80
2022/05/17 02:33:08;;;;;;;10.57;4.80;;;;;;;15.02;70.81;101896.28;6243900;23;20044;-80
2022/05/17 02:35:34;;;;;;;17.98;5.15;;;;;;;15.01;71.70;101897.25;6243588;23;20000;-80
2022/05/17 02:37:59;;;;;;;15.13;5.57;;;;;;;15.01;71.54;101890.06;6241821;23;20009;-79
2022/05/17 02:40:25;;;;;;;11.27;5.18;;;;;;;15.04;72.04;101889.84;6242167;23;20015;-80
2022/05/17 02:42:50;;;;;;;8.90;4.10;;;;;;;15.04;71.81;101891.63;6233207;23;19984;-80
2022/05/17 02:45:15;;;;;;;11.77;4.75;;;;;;;15.04;71.71;101897.88;6243476;23;20011;-80
2022/05/17 02:47:41;;;;;;;11.68;4.82;;;;;;;15.02;71.82;101899.81;6243837;23;19992;-79
2022/05/17 02:50:09;;;;;;;10.40;4.30;;;;;;;15.02;71.69;101902.50;6244032;23;19988;-80
2022/05/17 02:52:34;;;;;;;9.57;4.60;;;;;;;15.00;71.83;101904.41;6218480;23;20027;-80
2022/05/17 02:55:00;;;;;;;9.60;4.55;;;;;;;14.98;72.15;101901.00;6243726;23;19992;-80
2022/05/17 02:57:25;;;;;;;12.67;4.93;;;;;;;14.99;72.37;101908.09;6243975;23;19989;-80
2022/05/17 02:59:50;;;;;;;11.07;4.90;;;;;;;14.98;72.53;101903.69;6243656;23;20303;-80
2022/05/17 03:02:15;;;;;;;8.90;4.20;;;;;;;14.95;72.49;101909.28;6243073;23;19996;-80
2022/05/17 03:04:41;;;;;;;11.43;5.00;;;;;;;14.94;72.59;101908.44;6244101;23;20397;-80
2022/05/17 03:07:06;;;;;;;12.18;4.80;;;;;;;14.94;72.46;101905.75;6243868;23;20267;-80
2022/05/17 03:09:32;;;;;;;11.05;5.20;;;;;;;14.91;72.01;101900.66;6243673;23;19999;-80
2022/05/17 03:11:57;;;;;;;11.00;5.10;;;;;;;14.88;72.24;101900.03;6244039;23;20006;-80
2022/05/17 03:14:23;;;;;;;11.18;4.50;;;;;;;14.89;72.28;101905.28;6243619;23;20240;-80
2022/05/17 03:16:48;;;;;;;10.57;4.72;;;;;;;14.84;72.49;101910.13;6217940;23;19993;-80
2022/05/17 03:19:14;;;;;;;7.55;4.70;;;;;;;14.82;72.25;101906.69;6243777;23;20010;-81
2022/05/17 03:21:39;;;;;;;11.15;4.63;;;;;;;14.81;72.23;101907.69;6243695;23;20016;-79
2022/05/17 03:24:05;;;;;;;10.02;4.80;;;;;;;14.79;72.27;101905.13;6243809;23;20079;-80
2022/05/17 03:26:30;;;;;;;10.38;4.80;;;;;;;14.77;72.25;101907.06;6242940;23;19993;-80
2022/05/17 03:28:58;;;;;;;12.17;4.87;;;;;;;14.79;72.61;101912.31;6243662;23;20039;-80
2022/05/17 03:31:24;;;;;;;12.57;5.20;;;;;;;14.77;72.57;101909.75;6217668;23;20231;-79
2022/05/17 03:33:49;;;;;;;13.10;5.20;;;;;;;14.74;72.89;101909.97;6243157;23;19999;-80
2022/05/17 03:36:14;;;;;;;7.35;4.97;;;;;;;14.75;73.03;101908.16;6243899;23;20012;-80
2022/05/17 03:38:39;;;;;;;9.50;5.05;;;;;;;14.76;72.68;101909.88;6243679;23;20005;-80
2022/05/17 03:41:05;;;;;;;12.30;5.35;;;;;;;14.74;72.94;101909.16;6242790;23;20001;-80
2022/05/17 03:43:30;;;;;;;9.38;4.82;;;;;;;14.74;72.93;101912.66;6239593;23;20023;-80
2022/05/17 03:45:57;;;;;;;11.30;5.47;;;;;;;14.69;73.61;101913.97;6243577;23;20000;-79
2022/05/17 03:48:27;;;;;;;11.38;4.80;;;;;;;14.70;73.16;101915.69;6243787;23;20005;-80
2022/05/17 03:50:53;;;;;;;11.68;5.00;;;;;;;14.67;73.69;101915.91;6239567;23;19996;-80
2022/05/17 03:53:19;;;;;;;10.73;5.00;;;;;;;14.66;73.64;101908.88;6243337;23;20044;-81
2022/05/17 03:55:44;;;;;;;12.32;5.25;;;;;;;14.65;73.40;101912.50;6242359;23;20024;-80
2022/05/17 03:58:13;;;;;;;11.75;5.55;;;;;;;14.63;73.34;101917.97;6241293;23;20012;-80
2022/05/17 04:00:39;;;;;;;16.40;5.50;;;;;;;14.64;73.58;101913.47;6240557;23;20004;-80
2022/05/17 04:03:05;;;;;;;9.70;4.65;;;;;;;14.65;73.17;101916.03;6240350;23;20009;-80
2022/05/17 04:05:30;;;;;;;12.13;4.90;;;;;;;14.65;72.93;101912.50;6239547;23;20015;-80
2022/05/17 04:07:56;;;;;;;8.60;4.20;;;;;;;14.64;72.86;101910.78;6241038;23;20017;-80
2022/05/17 04:10:22;;;;;;;7.07;4.25;;;;;;;14.61;73.19;101912.75;6241166;23;20035;-80
2022/05/17 04:12:47;;;;;;;10.02;4.32;;;;;;;14.62;72.68;101913.59;6217698;23;19985;-80
2022/05/17 04:15:16;;;;;;;14.35;4.45;;;;;;;14.62;73.32;101921.59;6241782;23;19989;-80
2022/05/17 04:17:41;;;;;;;10.95;4.25;;;;;;;14.61;73.59;101923.44;6242690;23;20013;-80
2022/05/17 04:20:08;;;;;;;10.32;4.45;;;;;;;14.60;73.37;101928.91;6242587;23;19991;-80
2022/05/17 04:22:33;;;;;;;8.30;4.28;;;;;;;14.63;73.78;101930.50;6216212;23;19999;-80
2022/05/17 04:24:59;;;;;;;10.17;4.27;;;;;;;14.64;73.38;101934.88;6241922;23;19984;-80
2022/05/17 04:27:25;;;;;;;11.18;4.53;;;;;;;14.63;73.61;101930.50;6242266;23;20275;-80
2022/05/17 04:29:51;;;;;;;10.02;4.38;;;;;;;14.64;73.65;101929.50;6214723;23;20019;-79
2022/05/17 04:32:17;;;;;;;10.93;4.22;;;;;;;14.67;74.69;101931.97;6215479;23;19996;-80
2022/05/17 04:34:42;;;;;;;10.98;4.30;;;;;;;14.69;73.79;101930.00;6240952;23;20534;-80
2022/05/17 04:37:08;;;;;;;11.90;4.28;;;;;;;14.72;73.58;101933.31;6242345;23;20013;-80
2022/05/17 04:39:33;;;;;;;17.23;4.57;;;;;;;14.73;73.40;101931.50;6242378;23;20012;-81
2022/05/17 04:41:59;;;;;;;8.30;4.47;;;;;;;14.74;73.92;101933.22;6241709;23;20039;-80
2022/05/17 04:44:25;;;;;;;11.70;4.10;;;;;;;14.78;73.82;101932.00;6241155;23;20003;-80
2022/05/17 04:46:51;;;;;;;9.50;4.53;;;;;;;14.79;73.70;101937.22;6241223;23;20032;-80
2022/05/17 04:49:16;;;;;;;9.25;3.90;;;;;;;14.83;73.75;101934.31;6240174;23;19993;-80
2022/05/17 04:51:42;;;;;;;7.93;4.10;;;;;;;14.87;73.17;101938.44;6241091;23;20013;-80
2022/05/17 04:54:07;;;;;;;10.68;4.20;;;;;;;14.89;73.63;101937.38;6236326;23;20032;-80
2022/05/17 04:56:34;;;;;;;8.90;4.32;;;;;;;14.93;73.26;101937.97;6240814;23;20020;-80
2022/05/17 04:58:59;;;;;;;12.02;5.15;;;;;;;14.97;73.69;101934.94;6240619;23;20040;-80
2022/05/17 05:01:25;;;;;;;10.15;4.50;;;;;;;15.03;73.08;101940.78;6241370;23;20000;-80
2022/05/17 05:03:50;;;;;;;10.53;4.70;;;;;;;15.04;72.96;101937.13;6242239;23;20004;-79
2022/05/17 05:06:15;;;;;;;11.27;4.65;;;;;;;15.10;73.02;101945.53;6244476;23;20231;-79
2022/05/17 05:08:40;;;;;;;11.33;4.33;;;;;;;15.18;72.70;101944.94;6244129;23;20020;-80
2022/05/17 05:11:06;;;;;;;13.70;5.20;;;;;;;15.22;73.04;101948.22;6242307;23;20224;-79
2022/05/17 05:13:31;;;;;;;8.57;5.00;;;;;;;15.25;73.04;101954.19;6242684;23;20266;-79
2022/05/17 05:15:56;;;;;;;8.82;4.55;;;;;;;15.30;72.96;101954.66;6242060;23;20311;-79
2022/05/17 05:18:23;;;;;;;9.98;4.68;;;;;;;15.33;72.98;101954.41;6242097;23;20019;-80
2022/05/17 05:20:49;;;;;;;11.90;4.88;;;;;;;15.38;72.15;101961.25;6217493;23;20068;-79
2022/05/17 05:23:14;;;;;;;11.15;4.68;;;;;;;15.43;73.18;101973.28;6243491;23;20011;-79
2022/05/17 05:25:40;;;;;;;10.68;4.88;;;;;;;15.46;73.48;101972.22;6242663;23;20000;-80
2022/05/17 05:28:07;;;;;;;12.63;5.32;;;;;;;15.48;72.64;101973.78;6242528;23;20009;-77
2022/05/17 05:30:33;;;;;;;14.80;5.55;;;;;;;15.51;72.42;101973.53;6243419;23;20032;-79
2022/05/17 05:32:58;;;;;;;10.68;5.13;;;;;;;15.56;72.53;101977.69;6244549;23;19999;-78
2022/05/17 05:35:25;;;;;;;11.40;5.43;;;;;;;15.58;72.62;101981.94;6245317;23;19993;-79
2022/05/17 05:37:51;;;;;;;11.98;5.28;;;;;;;15.61;72.92;101983.53;6219130;23;20011;-78
2022/05/17 05:40:17;;;;;;;11.32;5.95;;;;;;;15.62;72.93;101983.41;6245110;23;20005;-78
2022/05/17 05:42:42;;;;;;;10.15;7.20;;;;;;;15.66;72.33;101981.31;6244937;23;20008;-79
2022/05/17 05:45:09;;;;;;;13.85;7.75;;;;;;;15.69;73.23;101987.28;6244861;23;20063;-79
2022/05/17 05:47:35;;;;;;;14.23;6.38;;;;;;;15.73;72.44;101987.88;6244346;23;20075;-80
2022/05/17 05:50:00;;;;;;;13.63;5.70;;;;;;;15.77;72.71;101986.72;6243678;23;20096;-80
2022/05/17 05:52:26;;;;;;;12.68;5.78;;;;;;;15.78;72.94;101987.56;6243884;23;20044;-79
2022/05/17 05:54:51;;;;;;;12.25;6.20;;;;;;;15.80;72.14;101986.44;6241323;23;20068;-79
2022/05/17 05:57:17;;;;;;;11.52;5.82;;;;;;;15.85;71.95;101988.75;6241347;23;20008;-79
2022/05/17 05:59:43;;;;;;;13.23;5.60;;;;;;;15.88;71.99;101993.88;6244390;23;19989;-79
2022/05/17 06:02:10;;;;;;;11.05;5.60;;;;;;;15.88;72.92;101991.19;6244032;23;19997;-79
2022/05/17 06:04:35;;;;;;;12.40;5.47;;;;;;;15.93;72.32;101985.47;6244234;23;20016;-79
2022/05/17 06:07:01;;;;;;;13.30;5.82;;;;;;;15.96;72.60;101985.22;6243683;23;20035;-79
2022/05/17 06:09:27;;;;;;;14.68;6.05;;;;;;;15.97;72.67;101981.53;6242904;23;19996;-79
2022/05/17 06:11:53;;;;;;;13.73;6.10;;;;;;;15.95;72.21;101984.34;6243011;23;20008;-80
2022/05/17 06:14:20;;;;;;;15.45;6.30;;;;;;;15.99;72.41;101985.81;6242986;23;20016;-79
2022/05/17 06:16:46;;;;;;;14.57;6.72;;;;;;;16.02;72.32;101990.94;6241182;23;19992;-79
2022/05/17 06:19:12;;;;;;;15.43;6.32;;;;;;;16.03;73.49;101989.09;6218281;23;20079;-80
2022/05/17 06:21:38;;;;;;;19.88;7.22;;;;;;;16.08;72.30;101993.09;6242687;23;20012;-80
2022/05/17 06:24:04;;;;;;;20.02;6.65;;;;;;;16.08;72.62;101994.91;6242986;23;20012;-77
2022/05/17 06:26:30;;;;;;;15.65;6.55;;;;;;;16.11;72.18;101994.69;6239001;23;20017;-77
2022/05/17 06:28:55;;;;;;;20.77;8.00;;;;;;;16.12;72.09;101992.84;6236785;23;20012;-79
2022/05/17 06:31:22;;;;;;;15.25;6.53;;;;;;;16.09;71.78;101985.91;6243678;23;20040;-80
2022/05/17 06:33:47;;;;;;;18.33;6.10;;;;;;;16.13;71.31;101991.88;6243783;23;19993;-77
2022/05/17 06:36:12;;;;;;;12.30;5.70;;;;;;;16.16;72.22;101997.81;6243187;23;20278;-78
2022/05/17 06:38:37;;;;;;;14.07;6.53;;;;;;;16.19;72.02;102002.09;6243080;23;20236;-79
2022/05/17 06:41:04;;;;;;;17.70;6.70;;;;;;;16.19;71.83;102010.16;6242152;23;20294;-78
2022/05/17 06:43:29;;;;;;;17.58;6.57;;;;;;;16.21;71.69;102005.50;6242000;23;20287;-79
2022/05/17 06:45:55;;;;;;;14.07;6.68;;;;;;;16.25;72.08;102004.25;6242656;23;19993;-79
2022/05/17 06:48:20;;;;;;;14.97;7.10;;;;;;;16.27;71.76;102005.00;6242018;23;19996;-79
2022/05/17 06:50:46;;;;;;;19.25;6.88;;;;;;;16.32;71.50;102004.59;6243427;23;20270;-78
2022/05/17 06:53:11;;;;;;;16.25;6.32;;;;;;;16.34;71.71;102010.72;6243067;23;20016;-78
2022/05/17 06:55:37;;;;;;;20.38;6.75;;;;;;;16.36;71.22;102016.78;6242998;23;19997;-78
2022/05/17 06:58:03;;;;;;;18.50;6.90;;;;;;;16.34;71.12;102008.03;6243142;23;20028;-77
2022/05/17 07:00:28;;;;;;;28.38;6.70;;;;;;;16.37;71.04;102019.34;6241583;23;19996;-77
2022/05/17 07:02:54;;;;;;;19.92;6.60;;;;;;;16.45;71.59;102016.88;6241114;23;20020;-78
2022/05/17 07:05:19;;;;;;;20.37;6.50;;;;;;;16.45;72.31;102018.69;6241666;23;20005;-78
2022/05/17 07:07:44;;;;;;;21.63;7.25;;;;;;;16.48;71.68;102021.13;6242146;23;20268;-78
2022/05/17 07:13:08;;;;;;;18.42;7.30;;;;;;;16.53;72.44;102012.69;6243477;23;20295;-78
2022/05/17 07:15:37;;;;;;;19.98;6.93;;;;;;;16.54;73.45;102012.56;6243154;23;20005;-77
2022/05/17 07:18:02;;;;;;;;;;;;;;;16.68;71.11;102018.63;6243638;23;20015;-79
2022/05/17 07:20:29;;;;;;;22.00;7.72;;;;;;;16.58;73.93;102022.06;6243304;23;19912;-81
2022/05/17 07:22:54;;;;;;;13.60;6.57;;;;;;;16.60;75.15;102021.94;6243235;23;20008;-80
2022/05/17 07:25:20;;;;;;;15.75;6.80;;;;;;;16.62;76.12;102022.66;6243236;23;19996;-79
2022/05/17 07:27:45;;;;;;;20.63;8.38;;;;;;;16.62;75.77;102025.31;6242538;23;20035;-80
2022/05/17 07:30:11;;;;;;;18.13;7.75;;;;;;;16.64;75.66;102029.59;6217808;23;20023;-80
2022/05/17 07:32:37;;;;;;;16.98;7.90;;;;;;;16.65;76.58;102025.94;6242620;23;20003;-80
2022/05/17 07:35:02;;;;;;;18.33;7.60;;;;;;;16.68;76.36;102018.63;6242988;23;20008;-79
2022/05/17 07:37:28;;;;;;;18.38;7.95;;;;;;;16.68;77.58;102015.94;6242834;23;20008;-80
2022/05/17 07:39:53;;;;;;;16.27;8.35;;;;;;;16.74;76.87;102018.94;6242928;23;19993;-80
2022/05/17 07:42:19;;;;;;;15.73;8.70;;;;;;;16.73;76.56;102016.41;6242983;23;19996;-80
2022/05/17 07:44:44;;;;;;;17.25;8.80;;;;;;;16.72;77.19;102017.38;6243770;23;20000;-80
2022/05/17 07:47:09;;;;;;;23.95;9.27;;;;;;;16.76;78.00;102022.34;6242658;23;20001;-80
2022/05/17 07:49:38;;;;;;;15.07;7.87;;;;;;;16.78;77.65;102030.28;6243065;23;20005;-80
2022/05/17 07:52:05;;;;;;;20.65;7.88;;;;;;;16.80;76.11;102029.19;6242314;23;20251;-80
2022/05/17 07:54:30;;;;;;;20.27;8.10;;;;;;;16.85;77.40;102036.00;6243060;23;20024;-80
2022/05/17 07:56:59;;;;;;;15.43;7.72;;;;;;;16.88;76.69;102027.69;6217693;23;19992;-80
2022/05/17 07:59:25;;;;;;;14.60;7.70;;;;;;;16.91;77.11;102027.44;6216021;23;19999;-80
2022/05/17 08:01:50;;;;;;;18.67;7.57;;;;;;;16.95;76.74;102026.19;6243955;23;19993;-81
2022/05/17 08:04:15;;;;;;;17.58;7.13;;;;;;;16.98;76.91;102024.09;6243474;23;20235;-80
2022/05/17 08:06:41;;;;;;;15.40;7.65;;;;;;;17.00;77.73;102037.38;6234311;23;19993;-81
2022/05/17 08:09:06;;;;;;;15.80;7.60;;;;;;;17.04;76.35;102040.66;6243252;23;20037;-81
2022/05/17 08:11:32;;;;;;;16.23;7.10;;;;;;;17.08;76.31;102040.25;6243567;23;20108;-81
2022/05/17 08:13:58;;;;;;;12.45;6.53;;;;;;;17.09;74.27;102044.66;6243821;23;19984;-81
2022/05/17 08:16:23;;;;;;;14.80;6.47;;;;;;;17.13;74.59;102040.72;6243602;23;20004;-80
2022/05/17 08:18:49;;;;;;;13.48;6.82;;;;;;;17.17;75.41;102036.81;6243703;23;19989;-80
2022/05/17 08:21:14;;;;;;;19.23;7.13;;;;;;;17.22;75.72;102041.78;6243533;23;19985;-80
2022/05/17 08:23:39;;;;;;;11.65;6.68;;;;;;;17.24;74.39;102042.50;6243727;23;20236;-80
2022/05/17 08:28:49;;;;;;;14.13;7.32;;;;;;;17.30;75.34;102031.25;6243135;23;20011;-80
2022/05/17 08:31:14;;;;;;;17.63;7.32;;;;;;;17.38;75.63;102033.25;6243461;23;19985;-80
2022/05/17 08:33:40;;;;;;;13.23;6.93;;;;;;;17.41;74.65;102041.03;6243551;23;19996;-80
2022/05/17 08:36:09;;;;;;;16.98;6.57;;;;;;;17.41;74.47;102041.03;6243889;23;20009;-80
2022/05/17 08:38:47;;;;;;;15.82;7.00;;;;;;;17.46;74.88;102044.16;6243713;23;20000;-80
2022/05/17 08:41:24;;;;;;;18.15;7.38;;;;;;;17.46;74.67;102046.84;6245721;23;20056;-80
2022/05/17 08:43:54;;;;;;;16.30;6.93;;;;;;;17.50;75.17;102042.94;6245380;23;20016;-80
2022/05/17 08:47:05;;;;;;;15.68;6.85;;;;;;;17.59;74.38;102029.69;6245758;23;20008;-80
2022/05/17 08:49:37;;;;;;;17.08;7.22;;;;;;;17.59;74.69;102045.81;6245785;23;19989;-80
2022/05/17 08:52:25;;;;;;;18.63;7.35;;;;;;;17.60;74.20;102040.25;6245041;23;19993;-80
2022/05/17 08:55:01;;;;;;;19.80;6.80;;;;;;;17.61;74.21;102025.88;6244407;23;19992;-80
2022/05/17 08:57:48;;;;;;;17.55;7.00;;;;;;;17.67;74.21;102032.53;6219190;23;19988;-80
2022/05/17 09:00:24;;;;;;;14.27;6.90;;;;;;;17.63;74.38;102021.19;6244950;23;19991;-80
2022/05/17 09:03:13;;;;;;;11.82;6.43;;;;;;;17.67;74.09;102029.84;6244975;23;20015;-80
2022/05/17 09:05:49;;;;;;;22.17;7.05;;;;;;;17.70;74.74;102034.94;6245431;23;19988;-80
2022/05/17 09:08:33;;;;;;;19.33;7.30;;;;;;;17.74;75.64;102029.16;6243114;23;20031;-80
2022/05/17 09:11:08;;;;;;;18.33;7.97;;;;;;;17.83;75.82;102029.34;6245493;23;20013;-80
2022/05/17 09:13:55;;;;;;;20.15;7.68;;;;;;;17.91;75.10;102026.84;6245246;23;19988;-80
2022/05/17 09:16:25;;;;;;;17.83;7.85;;;;;;;17.98;76.17;102027.16;6245376;23;20056;-80
2022/05/17 09:18:51;;;;;;;16.05;7.07;;;;;;;18.02;74.29;102016.00;6245211;23;20007;-80
2022/05/17 09:21:30;;;;;;;13.90;6.25;;;;;;;18.09;72.90;102010.91;6245326;23;19996;-80
2022/05/17 09:24:01;;;;;;;16.35;6.10;;;;;;;18.10;72.25;102008.09;6245432;23;19985;-80
2022/05/17 09:26:28;;;;;;;12.10;5.65;;;;;;;18.15;71.12;102010.34;6245010;23;20016;-80
2022/05/17 09:29:21;;;;;;;10.88;5.28;;;;;;;18.20;71.53;102005.44;6245020;23;20036;-80
2022/05/17 09:31:59;;;;;;;11.27;4.70;;;;;;;18.29;70.30;102003.72;6245344;23;19989;-80
2022/05/17 09:34:33;;;;;;;12.47;4.87;;;;;;;18.42;69.66;102011.53;6245334;23;20031;-80
2022/05/17 09:37:12;;;;;;;11.95;5.28;;;;;;;18.58;69.15;102008.28;6218916;23;19989;-80
2022/05/17 09:39:38;;;;;;;12.73;5.32;;;;;;;18.73;69.19;101998.75;6244993;23;20004;-80
2022/05/17 09:42:06;;;;;;;12.30;5.63;;;;;;;19.13;69.96;102003.13;6245351;23;19987;-80
2022/05/17 09:44:33;;;;;;;10.50;5.47;;;;;;;19.44;67.16;101999.38;6219583;23;20000;-80
2022/05/17 09:47:03;;;;;;;11.50;5.30;;;;;;;19.87;65.85;101997.94;6244888;23;20012;-80
2022/05/17 09:52:35;;;;;;;12.13;5.03;;;;;;;20.59;62.33;101993.41;6245056;23;20055;-79
2022/05/17 09:55:23;;;;;;;14.93;5.30;;;;;;;20.84;63.23;101990.94;6244268;23;19999;-80
2022/05/17 09:58:02;;;;;;;8.35;4.68;;;;;;;21.11;61.99;101987.25;6244827;23;20008;-80
2022/05/17 10:00:42;;;;;;;12.27;4.60;;;;;;;21.32;61.13;101980.63;6244752;23;19992;-80
2022/05/17 10:03:34;;;;;;;9.25;3.63;;;;;;;21.62;59.33;101979.28;6244735;23;19996;-80
2022/05/17 10:06:05;;;;;;;10.82;3.80;;;;;;;21.82;56.59;101979.84;6244813;23;19993;-80
2022/05/17 10:08:55;;;;;;;6.47;3.30;;;;;;;21.92;55.68;101972.44;6241089;23;20000;-80
2022/05/17 10:11:24;;;;;;;6.60;2.92;;;;;;;21.99;54.46;101976.16;6220672;23;20023;-80
2022/05/17 10:14:20;;;;;;;7.72;2.90;;;;;;;22.12;55.51;101970.28;6244934;23;20012;-79
2022/05/17 10:17:10;;;;;;;9.57;3.05;;;;;;;22.37;55.88;101955.97;6218846;23;20061;-79
2022/05/17 10:19:59;;;;;;;9.55;3.00;;;;;;;22.45;54.56;101953.25;6244761;23;19989;-79
2022/05/17 10:22:42;;;;;;;8.15;2.33;;;;;;;22.39;52.79;101964.78;6244535;23;19995;-80
2022/05/17 10:25:15;;;;;;;6.75;2.50;;;;;;;22.25;50.56;101958.09;6244658;23;20019;-78
2022/05/17 10:27:54;;;;;;;5.60;2.05;;;;;;;22.32;52.84;101960.03;6244021;23;20020;-79
2022/05/17 10:30:26;;;;;;;4.35;2.25;;;;;;;22.42;51.47;101959.88;6244539;23;19988;-79
2022/05/17 10:33:01;;;;;;;11.32;3.00;;;;;;;22.49;51.26;101952.75;6218996;23;19992;-79
2022/05/17 10:35:34;;;;;;;10.55;2.45;;;;;;;22.60;51.67;101954.28;6243125;22;19993;-79
2022/05/17 10:38:07;;;;;;;8.75;3.17;;;;;;;22.80;53.40;101951.19;6243600;23;20018;-79
2022/05/17 10:40:38;;;;;;;11.30;2.97;;;;;;;22.92;49.94;101950.69;6243653;23;20020;-78
2022/05/17 10:43:03;;;;;;;7.38;2.83;;;;;;;23.03;49.90;101944.06;6217701;23;20001;-79
2022/05/17 10:45:36;;;;;;;10.32;3.00;;;;;;;23.27;49.76;101943.16;6243573;23;20024;-79
2022/05/17 10:48:27;;;;;;;9.52;2.50;;;;;;;23.43;49.73;101946.81;6243436;23;20071;-80
2022/05/17 10:51:14;;;;;;;7.15;2.38;;;;;;;23.59;50.05;101941.31;6243724;23;20004;-79
2022/05/17 10:53:49;;;;;;;7.35;2.80;;;;;;;23.86;48.27;101947.31;6243146;23;20041;-80
2022/05/17 10:56:27;;;;;;;6.15;2.10;;;;;;;24.11;46.61;101944.44;6243695;23;19996;-80
2022/05/17 10:59:29;;;;;;;5.20;2.20;;;;;;;24.27;48.35;101946.22;6243856;23;20004;-80
2022/05/17 11:02:34;;;;;;;8.32;2.60;;;;;;;24.42;47.08;101946.25;6219294;23;19996;-79
2022/05/17 11:05:27;;;;;;;7.72;2.95;;;;;;;24.59;46.63;101941.56;6241478;23;20019;-80
2022/05/17 11:08:02;;;;;;;8.35;3.13;;;;;;;24.80;43.41;101936.25;6242222;23;20005;-79
2022/05/17 11:10:55;;;;;;;5.13;2.85;;;;;;;25.03;44.75;101935.31;6244125;23;19988;-79
2022/05/17 11:13:20;;;;;;;8.45;3.17;;;;;;;25.29;44.55;101929.44;6243714;23;20039;-79
2022/05/17 11:15:53;;;;;;;10.18;3.60;;;;;;;25.40;43.32;101923.53;6243592;23;19989;-79
2022/05/17 11:18:26;;;;;;;9.45;3.67;;;;;;;25.64;42.83;101916.91;6239305;23;20036;-79
2022/05/17 11:21:03;;;;;;;8.85;3.63;;;;;;;25.80;42.93;101909.56;6243864;23;19997;-79
2022/05/17 11:23:56;;;;;;;9.27;3.78;;;;;;;25.81;42.35;101901.22;6243872;23;19989;-79
2022/05/17 11:26:28;;;;;;;13.45;3.70;;;;;;;26.02;43.33;101894.94;6241897;23;20003;-79
2022/05/17 11:28:53;;;;;;;8.68;3.90;;;;;;;26.32;40.53;101893.97;6242828;23;20027;-79
2022/05/17 11:31:46;;;;;;;10.77;4.50;;;;;;;26.64;42.22;101892.56;6242759;23;19997;-80
2022/05/17 11:34:30;;;;;;;9.68;3.88;;;;;;;27.08;42.23;101890.50;6243628;23;20202;-81
2022/05/17 11:37:02;;;;;;;9.77;4.63;;;;;;;27.15;39.55;101888.66;6243411;23;19988;-79